sensor_id;sensor_type;location;lat;lon;timestamp;pressure;altitude;pressure_sealevel;temperature;humidity
7297;BME280;40758;54.038;11.684;2023-04-27T00:01:56;101584.69;;;2.56;75.16
7297;BME280;40758;54.038;11.684;2023-04-27T00:04:23;101581.03;;;2.47;75.22
7297;BME280;40758;54.038;11.684;2023-04-27T00:06:51;101577.66;;;2.45;75.40
7297;BME280;40758;54.038;11.684;2023-04-27T00:09:17;101573.75;;;2.39;75.85
7297;BME280;40758;54.038;11.684;2023-04-27T00:11:44;101575.16;;;2.44;76.10
7297;BME280;40758;54.038;11.684;2023-04-27T00:14:11;101581.94;;;2.38;76.23
7297;BME280;40758;54.038;11.684;2023-04-27T00:16:40;101583.47;;;2.40;76.32
7297;BME280;40758;54.038;11.684;2023-04-27T00:19:07;101587.84;;;2.32;76.75
7297;BME280;40758;54.038;11.684;2023-04-27T00:21:34;101586.22;;;2.21;76.35
7297;BME280;40758;54.038;11.684;2023-04-27T00:24:01;101583.00;;;2.18;76.89
7297;BME280;40758;54.038;11.684;2023-04-27T00:26:27;101580.63;;;2.15;76.96
7297;BME280;40758;54.038;11.684;2023-04-27T00:28:57;101589.94;;;2.10;77.53
7297;BME280;40758;54.038;11.684;2023-04-27T00:31:24;101583.47;;;2.03;77.73
7297;BME280;40758;54.038;11.684;2023-04-27T00:33:51;101589.69;;;1.94;77.55
7297;BME280;40758;54.038;11.684;2023-04-27T00:36:17;101577.44;;;1.82;77.59
7297;BME280;40758;54.038;11.684;2023-04-27T00:38:44;101580.97;;;1.92;77.79
7297;BME280;40758;54.038;11.684;2023-04-27T00:41:11;101589.69;;;1.84;77.71
7297;BME280;40758;54.038;11.684;2023-04-27T00:43:42;101583.78;;;1.81;78.96
7297;BME280;40758;54.038;11.684;2023-04-27T00:46:10;101589.69;;;1.84;79.15
7297;BME280;40758;54.038;11.684;2023-04-27T00:48:39;101589.69;;;1.84;78.81
7297;BME280;40758;54.038;11.684;2023-04-27T00:51:06;101587.91;;;1.75;79.03
7297;BME280;40758;54.038;11.684;2023-04-27T00:53:33;101596.91;;;1.74;79.63
7297;BME280;40758;54.038;11.684;2023-04-27T00:56:01;101588.59;;;1.68;79.54
7297;BME280;40758;54.038;11.684;2023-04-27T00:58:28;101594.50;;;1.62;79.54
7297;BME280;40758;54.038;11.684;2023-04-27T01:00:55;101596.75;;;1.56;79.34
7297;BME280;40758;54.038;11.684;2023-04-27T01:03:23;101590.28;;;1.49;79.81
7297;BME280;40758;54.038;11.684;2023-04-27T01:05:55;101584.09;;;1.49;80.11
7297;BME280;40758;54.038;11.684;2023-04-27T01:08:27;101594.25;;;1.55;80.47
7297;BME280;40758;54.038;11.684;2023-04-27T01:10:55;101588.75;;;1.47;80.37
7297;BME280;40758;54.038;11.684;2023-04-27T01:13:22;101588.03;;;1.45;80.69
7297;BME280;40758;54.038;11.684;2023-04-27T01:15:49;101593.13;;;1.48;80.25
7297;BME280;40758;54.038;11.684;2023-04-27T01:18:16;101590.03;;;1.43;80.29
7297;BME280;40758;54.038;11.684;2023-04-27T01:20:43;101591.44;;;1.37;80.81
7297;BME280;40758;54.038;11.684;2023-04-27T01:23:14;101593.97;;;1.29;80.51
7297;BME280;40758;54.038;11.684;2023-04-27T01:25:42;101602.41;;;1.24;80.62
7297;BME280;40758;54.038;11.684;2023-04-27T01:28:09;101591.72;;;1.44;81.40
7297;BME280;40758;54.038;11.684;2023-04-27T01:30:36;101597.50;;;1.58;81.06
7297;BME280;40758;54.038;11.684;2023-04-27T01:33:03;101591.16;;;1.69;81.65
7297;BME280;40758;54.038;11.684;2023-04-27T01:35:29;101594.50;;;1.71;81.24
7297;BME280;40758;54.038;11.684;2023-04-27T01:37:57;101602.69;;;1.70;81.14
7297;BME280;40758;54.038;11.684;2023-04-27T01:40:23;101602.53;;;1.71;81.22
7297;BME280;40758;54.038;11.684;2023-04-27T01:42:50;101612.00;;;1.75;81.51
7297;BME280;40758;54.038;11.684;2023-04-27T01:45:17;101605.91;;;1.73;81.79
7297;BME280;40758;54.038;11.684;2023-04-27T01:47:44;101611.16;;;1.75;81.47
7297;BME280;40758;54.038;11.684;2023-04-27T01:50:11;101610.00;;;1.68;81.48
7297;BME280;40758;54.038;11.684;2023-04-27T01:52:38;101608.03;;;1.60;81.61
7297;BME280;40758;54.038;11.684;2023-04-27T01:55:05;101613.56;;;1.58;81.77
7297;BME280;40758;54.038;11.684;2023-04-27T01:57:32;101613.41;;;1.70;81.97
7297;BME280;40758;54.038;11.684;2023-04-27T01:59:59;101615.06;;;1.90;82.48
7297;BME280;40758;54.038;11.684;2023-04-27T02:02:26;101610.38;;;2.02;82.04
7297;BME280;40758;54.038;11.684;2023-04-27T02:04:53;101609.25;;;2.04;81.42
7297;BME280;40758;54.038;11.684;2023-04-27T02:07:20;101618.41;;;2.11;81.54
7297;BME280;40758;54.038;11.684;2023-04-27T02:09:46;101614.75;;;2.03;82.15
7297;BME280;40758;54.038;11.684;2023-04-27T02:12:13;101617.25;;;2.14;81.53
7297;BME280;40758;54.038;11.684;2023-04-27T02:14:40;101621.06;;;2.21;82.01
7297;BME280;40758;54.038;11.684;2023-04-27T02:17:07;101626.84;;;2.26;81.99
7297;BME280;40758;54.038;11.684;2023-04-27T02:19:33;101626.53;;;2.29;82.03
7297;BME280;40758;54.038;11.684;2023-04-27T02:22:00;101616.25;;;2.25;82.07
7297;BME280;40758;54.038;11.684;2023-04-27T02:24:28;101635.81;;;2.35;81.68
7297;BME280;40758;54.038;11.684;2023-04-27T02:26:55;101640.94;;;2.28;81.94
7297;BME280;40758;54.038;11.684;2023-04-27T02:29:22;101639.84;;;2.11;81.39
7297;BME280;40758;54.038;11.684;2023-04-27T02:31:50;101644.50;;;2.00;81.56
7297;BME280;40758;54.038;11.684;2023-04-27T02:34:16;101637.63;;;1.88;81.70
7297;BME280;40758;54.038;11.684;2023-04-27T02:36:43;101643.56;;;1.81;82.11
7297;BME280;40758;54.038;11.684;2023-04-27T02:39:10;101641.03;;;1.70;82.50
7297;BME280;40758;54.038;11.684;2023-04-27T02:41:37;101653.16;;;1.65;82.82
7297;BME280;40758;54.038;11.684;2023-04-27T02:44:05;101637.34;;;1.62;82.80
7297;BME280;40758;54.038;11.684;2023-04-27T02:46:31;101643.16;;;1.57;83.11
7297;BME280;40758;54.038;11.684;2023-04-27T02:48:58;101648.63;;;1.55;83.14
7297;BME280;40758;54.038;11.684;2023-04-27T02:51:25;101638.19;;;1.43;83.40
7297;BME280;40758;54.038;11.684;2023-04-27T02:53:52;101652.41;;;1.43;83.04
7297;BME280;40758;54.038;11.684;2023-04-27T02:56:19;101651.88;;;1.40;83.42
7297;BME280;40758;54.038;11.684;2023-04-27T02:58:48;101650.44;;;1.36;83.47
7297;BME280;40758;54.038;11.684;2023-04-27T03:01:17;101656.06;;;1.23;83.70
7297;BME280;40758;54.038;11.684;2023-04-27T03:03:45;101649.72;;;1.24;83.70
7297;BME280;40758;54.038;11.684;2023-04-27T03:06:15;101648.16;;;1.21;84.44
7297;BME280;40758;54.038;11.684;2023-04-27T03:08:42;101651.38;;;1.15;84.45
7297;BME280;40758;54.038;11.684;2023-04-27T03:11:09;101649.16;;;1.20;84.76
7297;BME280;40758;54.038;11.684;2023-04-27T03:13:38;101659.00;;;1.20;84.69
7297;BME280;40758;54.038;11.684;2023-04-27T03:16:09;101654.50;;;1.11;84.41
7297;BME280;40758;54.038;11.684;2023-04-27T03:18:42;101660.25;;;1.16;85.00
7297;BME280;40758;54.038;11.684;2023-04-27T03:21:10;101656.31;;;1.10;84.78
7297;BME280;40758;54.038;11.684;2023-04-27T03:23:38;101658.56;;;1.05;84.56
7297;BME280;40758;54.038;11.684;2023-04-27T03:26:09;101661.25;;;1.05;84.88
7297;BME280;40758;54.038;11.684;2023-04-27T03:28:36;101660.50;;;1.03;84.89
7297;BME280;40758;54.038;11.684;2023-04-27T03:31:11;101661.91;;;0.97;85.47
7297;BME280;40758;54.038;11.684;2023-04-27T03:33:38;101656.84;;;0.94;84.95
7297;BME280;40758;54.038;11.684;2023-04-27T03:36:07;101661.50;;;1.02;85.39
7297;BME280;40758;54.038;11.684;2023-04-27T03:38:34;101666.59;;;1.05;85.71
7297;BME280;40758;54.038;11.684;2023-04-27T03:41:03;101668.00;;;1.09;85.69
7297;BME280;40758;54.038;11.684;2023-04-27T03:43:29;101655.31;;;1.01;85.19
7297;BME280;40758;54.038;11.684;2023-04-27T03:45:56;101676.75;;;1.11;85.92
7297;BME280;40758;54.038;11.684;2023-04-27T03:48:23;101664.06;;;1.13;85.68
7297;BME280;40758;54.038;11.684;2023-04-27T03:50:50;101666.03;;;1.11;85.97
7297;BME280;40758;54.038;11.684;2023-04-27T03:53:17;101671.66;;;1.08;85.19
7297;BME280;40758;54.038;11.684;2023-04-27T03:55:43;101663.47;;;1.00;85.32
7297;BME280;40758;54.038;11.684;2023-04-27T03:58:11;101671.09;;;1.04;85.36
7297;BME280;40758;54.038;11.684;2023-04-27T04:00:39;101673.63;;;1.06;85.47
7297;BME280;40758;54.038;11.684;2023-04-27T04:03:06;101680.94;;;1.04;85.65
7297;BME280;40758;54.038;11.684;2023-04-27T04:05:34;101682.66;;;1.05;85.75
7297;BME280;40758;54.038;11.684;2023-04-27T04:08:00;101684.03;;;1.09;86.16
7297;BME280;40758;54.038;11.684;2023-04-27T04:10:27;101680.25;;;1.12;85.87
7297;BME280;40758;54.038;11.684;2023-04-27T04:12:54;101676.75;;;1.21;85.82
7297;BME280;40758;54.038;11.684;2023-04-27T04:15:23;101666.59;;;1.05;85.77
7297;BME280;40758;54.038;11.684;2023-04-27T04:17:50;101686.72;;;1.09;85.84
7297;BME280;40758;54.038;11.684;2023-04-27T04:20:17;101682.34;;;1.08;85.58
7297;BME280;40758;54.038;11.684;2023-04-27T04:22:44;101682.34;;;1.08;85.95
7297;BME280;40758;54.038;11.684;2023-04-27T04:25:11;101696.88;;;1.15;86.12
7297;BME280;40758;54.038;11.684;2023-04-27T04:27:39;101693.63;;;1.12;85.54
7297;BME280;40758;54.038;11.684;2023-04-27T04:30:06;101692.50;;;1.14;85.62
7297;BME280;40758;54.038;11.684;2023-04-27T04:32:34;101698.28;;;1.19;85.87
7297;BME280;40758;54.038;11.684;2023-04-27T04:35:06;101693.38;;;1.24;86.35
7297;BME280;40758;54.038;11.684;2023-04-27T04:37:33;101692.41;;;1.25;85.94
7297;BME280;40758;54.038;11.684;2023-04-27T04:40:04;101695.34;;;1.32;85.88
7297;BME280;40758;54.038;11.684;2023-04-27T04:42:35;101691.88;;;1.41;85.58
7297;BME280;40758;54.038;11.684;2023-04-27T04:45:03;101700.03;;;1.40;86.12
7297;BME280;40758;54.038;11.684;2023-04-27T04:47:30;101687.22;;;1.43;85.70
7297;BME280;40758;54.038;11.684;2023-04-27T04:50:00;101682.69;;;1.44;85.46
7297;BME280;40758;54.038;11.684;2023-04-27T04:52:27;101700.06;;;1.59;85.50
7297;BME280;40758;54.038;11.684;2023-04-27T04:54:55;101697.09;;;1.72;85.46
7297;BME280;40758;54.038;11.684;2023-04-27T04:57:22;101696.53;;;2.07;85.59
7297;BME280;40758;54.038;11.684;2023-04-27T04:59:49;101698.56;;;2.52;84.44
7297;BME280;40758;54.038;11.684;2023-04-27T05:02:16;101702.56;;;2.75;83.97
7297;BME280;40758;54.038;11.684;2023-04-27T05:04:43;101706.13;;;2.66;83.87
7297;BME280;40758;54.038;11.684;2023-04-27T05:07:10;101700.84;;;2.47;83.32
7297;BME280;40758;54.038;11.684;2023-04-27T05:09:40;101700.41;;;2.42;83.45
7297;BME280;40758;54.038;11.684;2023-04-27T05:12:07;101696.53;;;2.26;84.22
7297;BME280;40758;54.038;11.684;2023-04-27T05:14:34;101703.31;;;2.21;84.49
7297;BME280;40758;54.038;11.684;2023-04-27T05:17:00;101701.47;;;2.21;84.06
7297;BME280;40758;54.038;11.684;2023-04-27T05:19:30;101695.69;;;2.16;84.31
7297;BME280;40758;54.038;11.684;2023-04-27T05:21:57;101699.47;;;2.23;84.52
7297;BME280;40758;54.038;11.684;2023-04-27T05:24:27;101704.09;;;2.31;84.19
7297;BME280;40758;54.038;11.684;2023-04-27T05:26:54;101697.16;;;2.48;84.66
7297;BME280;40758;54.038;11.684;2023-04-27T05:29:21;101705.94;;;2.77;84.58
7297;BME280;40758;54.038;11.684;2023-04-27T05:31:48;101699.59;;;3.06;83.79
7297;BME280;40758;54.038;11.684;2023-04-27T05:34:15;101719.72;;;3.47;83.50
7297;BME280;40758;54.038;11.684;2023-04-27T05:36:42;101709.88;;;3.83;82.33
7297;BME280;40758;54.038;11.684;2023-04-27T05:39:09;101705.50;;;4.26;81.56
7297;BME280;40758;54.038;11.684;2023-04-27T05:41:36;101703.72;;;4.35;81.08
7297;BME280;40758;54.038;11.684;2023-04-27T05:44:03;101712.09;;;4.58;80.31
7297;BME280;40758;54.038;11.684;2023-04-27T05:46:29;101710.44;;;4.91;79.47
7297;BME280;40758;54.038;11.684;2023-04-27T05:48:56;101702.63;;;5.64;78.33
7297;BME280;40758;54.038;11.684;2023-04-27T05:51:23;101705.22;;;6.14;77.44
7297;BME280;40758;54.038;11.684;2023-04-27T05:53:52;101706.53;;;6.68;75.38
7297;BME280;40758;54.038;11.684;2023-04-27T05:56:21;101702.91;;;6.91;73.96
7297;BME280;40758;54.038;11.684;2023-04-27T05:58:48;101702.84;;;7.08;72.81
7297;BME280;40758;54.038;11.684;2023-04-27T06:01:14;101707.09;;;6.94;71.83
7297;BME280;40758;54.038;11.684;2023-04-27T06:03:41;101710.34;;;7.29;71.65
7297;BME280;40758;54.038;11.684;2023-04-27T06:06:08;101714.38;;;7.33;71.17
7297;BME280;40758;54.038;11.684;2023-04-27T06:08:35;101694.44;;;7.88;70.74
7297;BME280;40758;54.038;11.684;2023-04-27T06:11:04;101712.75;;;7.55;69.09
7297;BME280;40758;54.038;11.684;2023-04-27T06:13:31;101714.06;;;7.28;68.31
7297;BME280;40758;54.038;11.684;2023-04-27T06:15:59;101729.13;;;7.53;67.48
7297;BME280;40758;54.038;11.684;2023-04-27T06:18:26;101729.28;;;7.60;67.02
7297;BME280;40758;54.038;11.684;2023-04-27T06:20:57;101725.44;;;7.46;66.82
7297;BME280;40758;54.038;11.684;2023-04-27T06:23:25;101727.28;;;7.77;66.15
7297;BME280;40758;54.038;11.684;2023-04-27T06:25:52;101726.03;;;8.10;66.19
7297;BME280;40758;54.038;11.684;2023-04-27T06:28:19;101727.88;;;8.18;65.44
7297;BME280;40758;54.038;11.684;2023-04-27T06:30:46;101726.63;;;7.74;65.03
7297;BME280;40758;54.038;11.684;2023-04-27T06:33:14;101730.38;;;7.73;65.09
7297;BME280;40758;54.038;11.684;2023-04-27T06:35:41;101726.66;;;8.20;64.95
7297;BME280;40758;54.038;11.684;2023-04-27T06:38:10;101722.91;;;8.21;63.79
7297;BME280;40758;54.038;11.684;2023-04-27T06:40:37;101728.09;;;8.08;63.47
7297;BME280;40758;54.038;11.684;2023-04-27T06:43:03;101730.97;;;8.30;63.16
7297;BME280;40758;54.038;11.684;2023-04-27T06:45:30;101730.25;;;8.88;63.78
7297;BME280;40758;54.038;11.684;2023-04-27T06:47:57;101727.34;;;8.90;62.15
7297;BME280;40758;54.038;11.684;2023-04-27T06:50:24;101724.69;;;8.52;61.88
7297;BME280;40758;54.038;11.684;2023-04-27T06:52:50;101721.72;;;8.62;61.66
7297;BME280;40758;54.038;11.684;2023-04-27T06:55:17;101737.31;;;8.60;60.97
7297;BME280;40758;54.038;11.684;2023-04-27T06:57:44;101735.94;;;8.78;60.45
7297;BME280;40758;54.038;11.684;2023-04-27T07:00:12;101732.41;;;9.22;60.50
7297;BME280;40758;54.038;11.684;2023-04-27T07:02:39;101743.50;;;8.83;59.98
7297;BME280;40758;54.038;11.684;2023-04-27T07:05:06;101742.38;;;8.92;59.53
7297;BME280;40758;54.038;11.684;2023-04-27T07:07:33;101744.00;;;8.26;59.97
7297;BME280;40758;54.038;11.684;2023-04-27T07:09:59;101735.59;;;8.21;60.61
7297;BME280;40758;54.038;11.684;2023-04-27T07:12:26;101732.56;;;8.01;60.17
7297;BME280;40758;54.038;11.684;2023-04-27T07:14:53;101737.38;;;8.37;59.94
7297;BME280;40758;54.038;11.684;2023-04-27T07:17:20;101744.31;;;8.54;59.38
7297;BME280;40758;54.038;11.684;2023-04-27T07:19:47;101748.84;;;8.91;59.77
7297;BME280;40758;54.038;11.684;2023-04-27T07:22:14;101756.69;;;9.16;58.75
7297;BME280;40758;54.038;11.684;2023-04-27T07:24:42;101750.03;;;9.48;58.91
7297;BME280;40758;54.038;11.684;2023-04-27T07:27:09;101732.69;;;8.83;57.06
7297;BME280;40758;54.038;11.684;2023-04-27T07:29:37;101758.56;;;9.00;57.40
7297;BME280;40758;54.038;11.684;2023-04-27T07:32:07;101751.81;;;9.41;57.91
7297;BME280;40758;54.038;11.684;2023-04-27T07:34:34;101755.13;;;9.72;56.79
7297;BME280;40758;54.038;11.684;2023-04-27T07:37:17;101752.31;;;9.66;56.41
7297;BME280;40758;54.038;11.684;2023-04-27T07:39:45;101767.00;;;9.56;55.76
7297;BME280;40758;54.038;11.684;2023-04-27T07:42:12;101762.91;;;9.60;55.25
7297;BME280;40758;54.038;11.684;2023-04-27T07:44:39;101753.97;;;9.30;54.83
7297;BME280;40758;54.038;11.684;2023-04-27T07:47:06;101762.97;;;9.67;54.87
7297;BME280;40758;54.038;11.684;2023-04-27T07:49:38;101755.72;;;9.53;53.99
7297;BME280;40758;54.038;11.684;2023-04-27T07:52:05;101772.41;;;9.71;54.03
7297;BME280;40758;54.038;11.684;2023-04-27T07:54:32;101773.19;;;9.50;52.97
7297;BME280;40758;54.038;11.684;2023-04-27T07:56:59;101766.31;;;9.18;53.23
7297;BME280;40758;54.038;11.684;2023-04-27T07:59:28;101772.59;;;9.33;53.78
7297;BME280;40758;54.038;11.684;2023-04-27T08:01:57;101777.03;;;9.56;53.07
7297;BME280;40758;54.038;11.684;2023-04-27T08:04:44;101761.66;;;9.78;52.43
7297;BME280;40758;54.038;11.684;2023-04-27T08:07:11;101776.41;;;10.11;52.30
7297;BME280;40758;54.038;11.684;2023-04-27T08:09:38;101784.34;;;9.92;51.47
7297;BME280;40758;54.038;11.684;2023-04-27T08:12:07;101787.72;;;9.79;51.72
7297;BME280;40758;54.038;11.684;2023-04-27T08:14:34;101780.13;;;9.53;51.65
7297;BME280;40758;54.038;11.684;2023-04-27T08:17:04;101788.00;;;9.18;51.56
7297;BME280;40758;54.038;11.684;2023-04-27T08:19:31;101787.88;;;9.56;51.75
7297;BME280;40758;54.038;11.684;2023-04-27T08:21:58;101787.69;;;9.43;51.44
7297;BME280;40758;54.038;11.684;2023-04-27T08:24:25;101791.06;;;9.45;52.04
7297;BME280;40758;54.038;11.684;2023-04-27T08:26:53;101794.81;;;9.95;52.42
7297;BME280;40758;54.038;11.684;2023-04-27T08:29:22;101789.44;;;10.01;51.78
7297;BME280;40758;54.038;11.684;2023-04-27T08:31:58;101792.13;;;10.16;51.77
7297;BME280;40758;54.038;11.684;2023-04-27T08:34:28;101786.47;;;10.32;51.39
7297;BME280;40758;54.038;11.684;2023-04-27T08:36:56;101784.91;;;10.45;51.43
7297;BME280;40758;54.038;11.684;2023-04-27T08:39:23;101792.34;;;10.57;51.17
7297;BME280;40758;54.038;11.684;2023-04-27T08:41:53;101796.50;;;10.17;49.75
7297;BME280;40758;54.038;11.684;2023-04-27T08:44:22;101793.91;;;9.73;49.73
7297;BME280;40758;54.038;11.684;2023-04-27T08:46:50;101808.06;;;9.39;49.37
7297;BME280;40758;54.038;11.684;2023-04-27T08:49:17;101797.91;;;9.26;49.00
7297;BME280;40758;54.038;11.684;2023-04-27T08:51:44;101796.97;;;9.33;49.56
7297;BME280;40758;54.038;11.684;2023-04-27T08:54:11;101792.47;;;9.26;50.11
7297;BME280;40758;54.038;11.684;2023-04-27T08:56:38;101795.91;;;9.64;49.56
7297;BME280;40758;54.038;11.684;2023-04-27T08:59:14;101793.97;;;9.58;48.59
7297;BME280;40758;54.038;11.684;2023-04-27T09:01:46;101779.47;;;9.51;49.09
7297;BME280;40758;54.038;11.684;2023-04-27T09:04:15;101786.53;;;9.81;50.19
7297;BME280;40758;54.038;11.684;2023-04-27T09:06:43;101794.47;;;9.83;49.42
7297;BME280;40758;54.038;11.684;2023-04-27T09:09:20;101782.00;;;10.25;49.99
7297;BME280;40758;54.038;11.684;2023-04-27T09:11:47;101790.66;;;10.35;48.22
7297;BME280;40758;54.038;11.684;2023-04-27T09:14:18;101786.00;;;10.50;48.27
7297;BME280;40758;54.038;11.684;2023-04-27T09:16:45;101789.75;;;10.49;47.32
7297;BME280;40758;54.038;11.684;2023-04-27T09:19:25;101793.00;;;10.87;47.35
7297;BME280;40758;54.038;11.684;2023-04-27T09:22:07;101786.31;;;10.62;46.10
7297;BME280;40758;54.038;11.684;2023-04-27T09:24:34;101786.44;;;10.54;46.54
7297;BME280;40758;54.038;11.684;2023-04-27T09:27:01;101792.03;;;10.46;45.86
7297;BME280;40758;54.038;11.684;2023-04-27T09:29:36;101799.53;;;10.72;46.08
7297;BME280;40758;54.038;11.684;2023-04-27T09:32:16;101792.91;;;10.53;44.87
7297;BME280;40758;54.038;11.684;2023-04-27T09:34:44;101782.94;;;10.17;44.14
7297;BME280;40758;54.038;11.684;2023-04-27T09:37:17;101791.31;;;10.01;44.69
7297;BME280;40758;54.038;11.684;2023-04-27T09:39:45;101781.13;;;9.67;45.27
7297;BME280;40758;54.038;11.684;2023-04-27T09:42:11;101781.38;;;10.08;47.23
7297;BME280;40758;54.038;11.684;2023-04-27T09:44:39;101787.13;;;9.98;45.69
7297;BME280;40758;54.038;11.684;2023-04-27T09:47:06;101785.31;;;10.05;45.63
7297;BME280;40758;54.038;11.684;2023-04-27T09:49:34;101789.47;;;9.21;45.68
7297;BME280;40758;54.038;11.684;2023-04-27T09:52:01;101789.44;;;9.65;46.34
7297;BME280;40758;54.038;11.684;2023-04-27T09:54:28;101781.53;;;9.85;45.37
7297;BME280;40758;54.038;11.684;2023-04-27T10:02:28;101766.69;;;10.95;45.86
7297;BME280;40758;54.038;11.684;2023-04-27T10:08:05;101775.41;;;10.34;44.15
7297;BME280;40758;54.038;11.684;2023-04-27T10:10:41;101764.94;;;10.31;43.93
7297;BME280;40758;54.038;11.684;2023-04-27T10:13:22;101770.19;;;10.60;44.92
7297;BME280;40758;54.038;11.684;2023-04-27T10:15:49;101766.84;;;11.14;45.38
7297;BME280;40758;54.038;11.684;2023-04-27T10:18:29;101747.81;;;11.14;43.88
7297;BME280;40758;54.038;11.684;2023-04-27T10:21:08;101761.03;;;10.61;43.80
7297;BME280;40758;54.038;11.684;2023-04-27T10:23:44;101755.56;;;10.33;43.43
7297;BME280;40758;54.038;11.684;2023-04-27T10:26:24;101769.22;;;10.40;44.27
7297;BME280;40758;54.038;11.684;2023-04-27T10:29:04;101769.56;;;10.86;44.39
7297;BME280;40758;54.038;11.684;2023-04-27T10:31:32;101772.59;;;10.49;42.26
7297;BME280;40758;54.038;11.684;2023-04-27T10:34:15;101768.31;;;10.33;43.22
7297;BME280;40758;54.038;11.684;2023-04-27T10:36:46;101764.91;;;10.52;43.31
7297;BME280;40758;54.038;11.684;2023-04-27T10:39:16;101775.16;;;10.50;43.33
7297;BME280;40758;54.038;11.684;2023-04-27T10:41:54;101768.09;;;10.34;43.32
7297;BME280;40758;54.038;11.684;2023-04-27T10:44:26;101763.81;;;10.96;44.65
7297;BME280;40758;54.038;11.684;2023-04-27T10:46:58;101770.06;;;10.97;43.09
7297;BME280;40758;54.038;11.684;2023-04-27T10:49:29;101772.22;;;10.52;42.62
7297;BME280;40758;54.038;11.684;2023-04-27T10:51:57;101774.69;;;10.25;42.21
7297;BME280;40758;54.038;11.684;2023-04-27T10:54:27;101780.19;;;10.53;42.30
7297;BME280;40758;54.038;11.684;2023-04-27T10:57:08;101769.06;;;10.48;41.75
7297;BME280;40758;54.038;11.684;2023-04-27T10:59:46;101779.78;;;10.56;41.58
7297;BME280;40758;54.038;11.684;2023-04-27T11:02:12;101773.97;;;10.59;41.36
7297;BME280;40758;54.038;11.684;2023-04-27T11:04:39;101778.84;;;10.71;41.07
7297;BME280;40758;54.038;11.684;2023-04-27T11:07:08;101769.66;;;10.44;40.32
7297;BME280;40758;54.038;11.684;2023-04-27T11:09:36;101773.38;;;10.43;40.51
7297;BME280;40758;54.038;11.684;2023-04-27T11:12:07;101771.88;;;10.89;41.34
7297;BME280;40758;54.038;11.684;2023-04-27T11:14:34;101785.47;;;11.24;40.79
7297;BME280;40758;54.038;11.684;2023-04-27T11:17:05;101786.38;;;11.31;39.98
7297;BME280;40758;54.038;11.684;2023-04-27T11:19:43;101782.22;;;11.42;39.73
7297;BME280;40758;54.038;11.684;2023-04-27T11:22:09;101785.63;;;11.92;40.97
7297;BME280;40758;54.038;11.684;2023-04-27T11:24:45;101786.91;;;12.03;39.21
7297;BME280;40758;54.038;11.684;2023-04-27T11:27:13;101784.38;;;11.12;37.69
7297;BME280;40758;54.038;11.684;2023-04-27T11:29:40;101782.84;;;11.37;38.96
7297;BME280;40758;54.038;11.684;2023-04-27T11:32:07;101781.47;;;12.22;39.70
7297;BME280;40758;54.038;11.684;2023-04-27T11:34:34;101782.13;;;11.63;36.87
7297;BME280;40758;54.038;11.684;2023-04-27T11:37:05;101779.34;;;11.43;37.88
7297;BME280;40758;54.038;11.684;2023-04-27T11:39:44;101779.78;;;11.54;37.22
7297;BME280;40758;54.038;11.684;2023-04-27T11:42:21;101784.31;;;11.81;37.12
7297;BME280;40758;54.038;11.684;2023-04-27T11:44:55;101781.91;;;12.13;36.99
7297;BME280;40758;54.038;11.684;2023-04-27T11:47:26;101777.97;;;11.67;36.47
7297;BME280;40758;54.038;11.684;2023-04-27T11:49:56;101769.09;;;11.45;35.37
7297;BME280;40758;54.038;11.684;2023-04-27T11:52:33;101791.72;;;12.01;36.89
7297;BME280;40758;54.038;11.684;2023-04-27T11:55:01;101788.19;;;12.07;36.34
7297;BME280;40758;54.038;11.684;2023-04-27T11:57:34;101790.31;;;12.38;36.79
7297;BME280;40758;54.038;11.684;2023-04-27T12:00:04;101780.16;;;11.85;35.26
7297;BME280;40758;54.038;11.684;2023-04-27T12:02:36;101792.88;;;11.78;35.37
7297;BME280;40758;54.038;11.684;2023-04-27T12:05:04;101788.00;;;11.67;35.44
7297;BME280;40758;54.038;11.684;2023-04-27T12:07:33;101781.25;;;11.50;35.23
7297;BME280;40758;54.038;11.684;2023-04-27T12:10:00;101777.66;;;11.84;36.35
7297;BME280;40758;54.038;11.684;2023-04-27T12:12:27;101767.25;;;12.40;37.09
7297;BME280;40758;54.038;11.684;2023-04-27T12:14:53;101770.22;;;12.78;36.54
7297;BME280;40758;54.038;11.684;2023-04-27T12:17:24;101776.69;;;12.51;35.70
7297;BME280;40758;54.038;11.684;2023-04-27T12:19:54;101772.28;;;12.23;35.65
7297;BME280;40758;54.038;11.684;2023-04-27T12:22:21;101771.69;;;11.67;35.95
7297;BME280;40758;54.038;11.684;2023-04-27T12:24:49;101786.38;;;11.79;37.34
7297;BME280;40758;54.038;11.684;2023-04-27T12:27:16;101771.59;;;11.47;37.57
7297;BME280;40758;54.038;11.684;2023-04-27T12:29:45;101780.66;;;11.19;38.07
7297;BME280;40758;54.038;11.684;2023-04-27T12:32:12;101775.81;;;11.50;38.55
7297;BME280;40758;54.038;11.684;2023-04-27T12:34:38;101774.34;;;11.54;38.26
7297;BME280;40758;54.038;11.684;2023-04-27T12:37:05;101775.53;;;11.03;38.29
7297;BME280;40758;54.038;11.684;2023-04-27T12:39:33;101771.13;;;10.68;39.10
7297;BME280;40758;54.038;11.684;2023-04-27T12:42:00;101783.72;;;10.54;40.00
7297;BME280;40758;54.038;11.684;2023-04-27T12:44:28;101783.22;;;10.22;40.60
7297;BME280;40758;54.038;11.684;2023-04-27T12:46:55;101771.97;;;10.96;41.50
7297;BME280;40758;54.038;11.684;2023-04-27T12:49:22;101777.31;;;10.89;40.36
7297;BME280;40758;54.038;11.684;2023-04-27T12:51:51;101781.94;;;10.96;41.52
7297;BME280;40758;54.038;11.684;2023-04-27T12:54:18;101785.34;;;10.98;41.34
7297;BME280;40758;54.038;11.684;2023-04-27T12:56:44;101780.03;;;10.89;40.69
7297;BME280;40758;54.038;11.684;2023-04-27T12:59:14;101796.31;;;11.17;41.69
7297;BME280;40758;54.038;11.684;2023-04-27T13:01:42;101798.69;;;11.27;41.10
7297;BME280;40758;54.038;11.684;2023-04-27T13:04:16;101784.06;;;11.28;40.65
7297;BME280;40758;54.038;11.684;2023-04-27T13:06:44;101796.75;;;11.56;40.89
7297;BME280;40758;54.038;11.684;2023-04-27T13:09:12;101797.13;;;11.11;39.84
7297;BME280;40758;54.038;11.684;2023-04-27T13:11:39;101783.94;;;11.84;41.70
7297;BME280;40758;54.038;11.684;2023-04-27T13:14:05;101798.38;;;11.85;39.40